createdAt,value
2019-04-03T00:06:55.280Z,7.69
2019-04-03T00:16:59.217Z,7.75
2019-04-03T00:27:04.109Z,7.69
2019-04-03T00:37:08.209Z,7.62
2019-04-03T00:47:13.408Z,7.44
2019-04-03T00:57:17.367Z,7.69
2019-04-03T01:07:21.241Z,7.37
2019-04-03T01:17:25.230Z,7.69
2019-04-03T01:27:29.248Z,7.62
2019-04-03T01:37:34.311Z,7.44
2019-04-03T01:47:38.241Z,7.62
2019-04-03T01:57:42.254Z,7.50
2019-04-03T02:07:46.233Z,7.56
2019-04-03T02:17:50.213Z,7.44
2019-04-03T02:27:55.293Z,7.69
2019-04-03T02:37:59.228Z,7.69
2019-04-03T02:48:05.682Z,7.69
2019-04-03T02:58:10.598Z,7.75
2019-04-03T03:08:14.265Z,7.50
2019-04-03T03:18:18.215Z,7.56
2019-04-03T03:28:23.284Z,7.62
2019-04-03T03:38:28.377Z,7.37
2019-04-03T03:48:33.365Z,7.19
2019-04-03T03:58:37.103Z,7.19
2019-04-03T04:08:44.302Z,6.87
2019-04-03T04:18:47.686Z,6.87
2019-04-03T04:28:52.296Z,6.62
2019-04-03T04:38:57.970Z,6.62
2019-04-03T04:49:02.258Z,6.31
2019-04-03T04:59:06.116Z,6.44
2019-04-03T05:09:10.096Z,6.50
2019-04-03T05:19:18.749Z,6.37
2019-04-03T05:29:20.731Z,6.37
2019-04-03T05:39:25.292Z,6.62
2019-04-03T05:49:29.105Z,6.87
2019-04-03T05:59:33.792Z,6.87
2019-04-03T06:09:38.814Z,6.81
2019-04-03T06:19:43.315Z,7.12
2019-04-03T06:29:47.101Z,7.25
2019-04-03T06:39:51.083Z,7.44
2019-04-03T06:49:55.633Z,7.94
2019-04-03T07:00:00.136Z,8.00
2019-04-03T07:10:06.003Z,8.25
2019-04-03T07:20:15.072Z,8.63
2019-04-03T07:30:19.985Z,8.94
2019-04-03T07:40:25.519Z,8.94
2019-04-03T07:50:29.089Z,9.50
2019-04-03T08:00:34.358Z,9.75
2019-04-03T08:10:38.324Z,10.06
2019-04-03T08:20:42.095Z,10.50
2019-04-03T08:30:46.088Z,10.94
2019-04-03T08:40:52.389Z,11.31
2019-04-03T08:50:57.241Z,11.81
2019-04-03T09:01:04.825Z,12.19
2019-04-03T09:11:08.297Z,12.81
2019-04-03T09:21:12.845Z,13.56
2019-04-03T09:31:19.852Z,13.56
2019-04-03T09:41:23.687Z,14.38
2019-04-03T09:51:31.354Z,14.94
2019-04-03T10:01:35.148Z,14.81
2019-04-03T10:11:40.301Z,15.00
2019-04-03T10:21:44.244Z,15.88
2019-04-03T10:31:48.356Z,16.00
2019-04-03T10:41:52.227Z,16.50
2019-04-03T10:51:57.327Z,16.94
2019-04-03T11:02:01.155Z,17.00
2019-04-03T11:12:05.951Z,17.25
2019-04-03T11:22:11.120Z,17.75
2019-04-03T11:32:16.546Z,18.12
2019-04-03T11:42:25.221Z,18.62
2019-04-03T11:52:26.532Z,19.06
2019-04-03T12:02:30.353Z,19.56
2019-04-03T12:12:35.282Z,19.94
2019-04-03T12:22:39.140Z,20.50
2019-04-03T12:32:48.759Z,21.19
2019-04-03T12:42:50.332Z,21.37
2019-04-03T12:52:54.179Z,23.31
2019-04-03T13:02:58.123Z,27.06
2019-04-03T13:13:02.963Z,27.81
2019-04-03T13:23:08.334Z,28.00
2019-04-03T13:33:12.235Z,28.25
2019-04-03T13:43:16.129Z,25.69
2019-04-03T13:53:24.705Z,24.12
2019-04-03T14:03:28.010Z,24.25
2019-04-03T14:13:32.084Z,23.56
2019-04-03T14:23:39.789Z,22.81
2019-04-03T14:33:45.594Z,22.37
2019-04-03T14:43:48.294Z,21.75
2019-04-03T14:53:52.965Z,21.50
2019-04-03T15:03:59.967Z,21.69
2019-04-03T15:14:04.197Z,20.88
2019-04-03T15:24:08.956Z,20.25
2019-04-03T15:34:15.227Z,19.06
2019-04-03T15:44:21.017Z,18.94
2019-04-03T15:54:26.478Z,17.94
2019-04-03T16:04:33.490Z,17.69
2019-04-03T16:14:37.117Z,17.06
2019-04-03T16:24:44.277Z,16.62
2019-04-03T16:34:47.457Z,16.19
2019-04-03T16:44:53.263Z,15.75
2019-04-03T16:54:57.392Z,15.50
2019-04-03T17:05:01.112Z,15.06
2019-04-03T17:15:09.741Z,14.69
2019-04-03T17:25:15.227Z,14.56
2019-04-03T17:35:19.085Z,14.19
2019-04-03T17:45:23.649Z,13.94
2019-04-03T17:55:28.271Z,13.62
2019-04-03T18:05:33.325Z,13.69
2019-04-03T18:15:37.122Z,13.56
2019-04-03T18:25:42.263Z,13.50
2019-04-03T18:35:46.096Z,13.38
2019-04-03T18:45:50.655Z,13.19
2019-04-03T18:55:56.301Z,13.25
2019-04-03T19:06:00.185Z,13.25
2019-04-03T19:16:08.036Z,13.00
2019-04-03T19:26:12.163Z,12.75
2019-04-03T19:36:16.669Z,12.81
2019-04-03T19:46:24.283Z,12.63
2019-04-03T19:56:28.250Z,12.56
2019-04-03T20:06:32.231Z,12.25
2019-04-03T20:16:36.225Z,12.13
2019-04-03T20:26:40.704Z,12.19
2019-04-03T20:36:45.316Z,12.06
2019-04-03T20:46:52.261Z,11.94
2019-04-03T20:56:58.441Z,11.88
2019-04-03T21:07:04.263Z,11.75
2019-04-03T21:17:08.231Z,11.69
2019-04-03T21:27:13.287Z,11.56
2019-04-03T21:37:17.214Z,11.31
2019-04-03T21:47:22.283Z,11.44
2019-04-03T21:57:26.175Z,11.38
2019-04-03T22:07:31.281Z,11.25
2019-04-03T22:17:35.230Z,11.19
2019-04-03T22:27:40.787Z,11.12
2019-04-03T22:37:46.406Z,11.12
2019-04-03T22:47:50.247Z,10.94
2019-04-03T22:57:54.217Z,10.81
2019-04-03T23:07:59.332Z,10.75
2019-04-03T23:18:03.224Z,10.75
2019-04-03T23:28:07.256Z,10.63
2019-04-03T23:38:11.224Z,10.50
2019-04-03T23:48:18.354Z,10.50
2019-04-03T23:58:22.390Z,10.31
